createdAt,value
2017-11-11T00:01:02.277Z,62.57
2017-11-11T00:03:30.793Z,58.37
2017-11-11T00:05:58.961Z,54.93
2017-11-11T00:08:26.695Z,60.87
2017-11-11T00:10:54.477Z,60.97
2017-11-11T00:13:22.304Z,54.40
2017-11-11T00:15:49.917Z,56.83
2017-11-11T00:18:17.529Z,34.77
2017-11-11T00:20:45.099Z,38.53
2017-11-11T00:23:12.756Z,42.57
2017-11-11T00:25:41.077Z,44.20
2017-11-11T00:28:08.679Z,41.57
2017-11-11T00:30:36.300Z,40.30
2017-11-11T00:33:04.093Z,42.00
2017-11-11T00:35:31.901Z,44.00
2017-11-11T00:37:59.917Z,47.90
2017-11-11T00:40:28.266Z,46.43
2017-11-11T00:42:55.801Z,50.83
2017-11-11T00:45:23.596Z,50.10
2017-11-11T00:47:51.464Z,49.13
2017-11-11T00:50:19.246Z,53.50
2017-11-11T00:52:46.921Z,51.80
2017-11-11T00:55:14.526Z,49.90
2017-11-11T00:57:42.185Z,49.97
2017-11-11T01:00:09.968Z,47.43
2017-11-11T01:02:38.634Z,46.90
2017-11-11T01:05:06.514Z,45.67
2017-11-11T01:07:35.014Z,47.03
2017-11-11T01:10:03.194Z,47.20
2017-11-11T01:12:31.609Z,46.17
2017-11-11T01:14:59.213Z,45.80
2017-11-11T01:17:26.981Z,46.23
2017-11-11T01:19:54.814Z,48.63
2017-11-11T01:22:23.263Z,45.70
2017-11-11T01:24:51.873Z,45.33
2017-11-11T01:27:19.732Z,46.93
2017-11-11T01:29:47.581Z,48.37
2017-11-11T01:32:15.675Z,49.90
2017-11-11T01:34:43.483Z,51.07
2017-11-11T01:37:11.293Z,55.53
2017-11-11T01:39:39.099Z,55.90
2017-11-11T01:42:06.702Z,52.97
2017-11-11T01:44:34.321Z,57.23
2017-11-11T01:47:03.668Z,54.93
2017-11-11T01:49:32.003Z,58.13
2017-11-11T01:52:00.910Z,52.10
2017-11-11T01:54:29.790Z,52.10
2017-11-11T01:56:59.353Z,54.20
2017-11-11T01:59:30.710Z,55.50
2017-11-11T02:02:03.785Z,55.13
2017-11-11T02:04:33.645Z,56.30
2017-11-11T02:07:02.888Z,53.07
2017-11-11T02:09:30.795Z,52.27
2017-11-11T02:11:59.271Z,56.23
2017-11-11T02:14:26.896Z,50.60
2017-11-11T02:16:54.685Z,54.53
2017-11-11T02:19:22.353Z,52.83
2017-11-11T02:21:49.987Z,55.27
2017-11-11T02:24:17.786Z,52.00
2017-11-11T02:26:45.362Z,55.70
2017-11-11T02:29:12.992Z,52.27
2017-11-11T02:31:40.592Z,52.00
2017-11-11T02:34:08.240Z,54.23
2017-11-11T02:36:36.741Z,47.40
2017-11-11T02:39:04.665Z,46.03
2017-11-11T02:41:32.269Z,45.77
2017-11-11T02:44:00.452Z,45.03
2017-11-11T02:46:28.124Z,45.83
2017-11-11T02:48:55.947Z,44.30
2017-11-11T02:51:23.574Z,45.00
2017-11-11T02:53:51.252Z,42.13
2017-11-11T02:56:19.083Z,45.47
2017-11-11T02:58:46.945Z,42.87
2017-11-11T03:01:14.535Z,42.40
2017-11-11T03:03:42.335Z,40.73
2017-11-11T03:06:09.982Z,40.57
2017-11-11T03:08:37.605Z,40.40
2017-11-11T03:11:05.992Z,40.30
2017-11-11T03:13:33.789Z,42.43
2017-11-11T03:16:01.402Z,42.10
2017-11-11T03:18:29.224Z,42.00
2017-11-11T03:20:56.778Z,43.27
2017-11-11T03:23:24.576Z,42.07
2017-11-11T03:25:52.180Z,42.93
2017-11-11T03:28:19.782Z,46.73
2017-11-11T03:30:47.431Z,44.00
2017-11-11T03:33:15.043Z,41.73
2017-11-11T03:35:42.909Z,45.20
2017-11-11T03:38:10.529Z,42.60
2017-11-11T03:40:38.959Z,44.17
2017-11-11T03:43:07.056Z,43.63
2017-11-11T03:45:35.597Z,43.23
2017-11-11T03:48:03.246Z,43.73
2017-11-11T03:50:31.002Z,44.33
2017-11-11T03:52:58.588Z,41.23
2017-11-11T03:55:26.205Z,41.13
2017-11-11T03:57:53.779Z,40.47
2017-11-11T04:00:21.425Z,39.60
2017-11-11T04:02:49.062Z,40.63
2017-11-11T04:05:18.159Z,40.67
2017-11-11T04:07:45.849Z,39.40
2017-11-11T04:10:13.509Z,42.20
2017-11-11T04:12:41.456Z,41.50
2017-11-11T04:15:09.081Z,43.40
2017-11-11T04:17:36.652Z,40.00
2017-11-11T04:20:04.483Z,42.00
2017-11-11T04:22:32.126Z,38.43
2017-11-11T04:25:00.206Z,38.40
2017-11-11T04:27:27.929Z,39.63
2017-11-11T04:29:55.539Z,38.70
2017-11-11T04:32:23.824Z,36.50
2017-11-11T04:34:51.383Z,35.20
2017-11-11T04:37:20.014Z,34.10
2017-11-11T04:39:48.884Z,34.53
2017-11-11T04:42:16.694Z,34.33
2017-11-11T04:44:44.348Z,35.00
2017-11-11T04:47:11.983Z,34.53
2017-11-11T04:49:39.747Z,33.43
2017-11-11T04:52:07.474Z,35.20
2017-11-11T04:54:36.120Z,36.90
2017-11-11T04:57:03.941Z,35.70
2017-11-11T04:59:31.647Z,35.63
2017-11-11T05:01:59.393Z,36.00
2017-11-11T05:04:26.988Z,33.50
2017-11-11T05:06:54.681Z,35.83
2017-11-11T05:09:23.233Z,33.07
2017-11-11T05:11:50.940Z,32.77
2017-11-11T05:14:18.775Z,35.00
2017-11-11T05:16:46.416Z,36.00
2017-11-11T05:19:14.096Z,34.57
2017-11-11T05:21:41.664Z,33.03
2017-11-11T05:24:09.367Z,34.17
2017-11-11T05:26:36.896Z,32.83
2017-11-11T05:29:04.650Z,33.67
2017-11-11T05:31:32.497Z,34.13
2017-11-11T05:34:00.510Z,32.57
2017-11-11T05:36:28.108Z,33.90
2017-11-11T05:38:55.679Z,33.07
2017-11-11T05:41:23.438Z,32.20
2017-11-11T05:43:51.004Z,34.10
2017-11-11T05:46:18.674Z,33.70
2017-11-11T05:48:46.225Z,33.67
2017-11-11T05:51:14.699Z,32.40
2017-11-11T05:53:42.305Z,33.80
2017-11-11T05:56:10.140Z,32.83
2017-11-11T05:58:37.717Z,32.60
2017-11-11T06:01:05.338Z,32.33
2017-11-11T06:03:33.108Z,31.40
2017-11-11T06:06:00.633Z,31.63
2017-11-11T06:08:28.210Z,31.03
2017-11-11T06:10:55.754Z,32.67
2017-11-11T06:13:23.374Z,33.83
2017-11-11T06:15:50.960Z,34.50
2017-11-11T06:18:18.513Z,31.83
2017-11-11T06:20:46.084Z,36.03
2017-11-11T06:23:13.705Z,35.00
2017-11-11T06:25:41.296Z,33.43
2017-11-11T06:28:08.968Z,34.47
2017-11-11T06:30:36.548Z,33.83
2017-11-11T06:33:04.356Z,34.83
2017-11-11T06:35:31.935Z,33.43
2017-11-11T06:37:59.561Z,33.80
2017-11-11T06:40:27.127Z,31.00
2017-11-11T06:42:54.733Z,33.40
2017-11-11T06:45:22.305Z,34.83
2017-11-11T06:47:49.829Z,35.70
2017-11-11T06:50:17.391Z,38.60
2017-11-11T06:52:45.277Z,38.27
2017-11-11T06:55:12.901Z,38.17
2017-11-11T06:57:40.786Z,33.80
2017-11-11T07:00:10.569Z,36.53
2017-11-11T07:02:38.169Z,37.97
2017-11-11T07:05:06.691Z,33.97
2017-11-11T07:07:34.320Z,32.23
2017-11-11T07:10:01.949Z,32.43
2017-11-11T07:12:29.767Z,32.83
2017-11-11T07:14:57.453Z,31.40
2017-11-11T07:17:25.040Z,29.23
2017-11-11T07:19:52.848Z,27.57
2017-11-11T07:22:20.490Z,27.57
2017-11-11T07:24:48.070Z,28.87
2017-11-11T07:27:15.836Z,28.53
2017-11-11T07:29:43.883Z,33.50
2017-11-11T07:32:14.437Z,33.60
2017-11-11T07:34:42.069Z,35.30
2017-11-11T07:37:09.651Z,34.17
2017-11-11T07:39:37.330Z,37.67
2017-11-11T07:42:05.133Z,41.70
2017-11-11T07:44:34.542Z,39.83
2017-11-11T07:47:03.797Z,40.50
2017-11-11T07:49:31.325Z,41.37
2017-11-11T07:52:02.490Z,38.53
2017-11-11T07:54:30.111Z,36.20
2017-11-11T07:56:57.892Z,36.47
2017-11-11T07:59:25.500Z,37.17
2017-11-11T08:01:54.359Z,36.73
2017-11-11T08:04:22.058Z,34.00
2017-11-11T08:06:50.612Z,31.10
2017-11-11T08:09:18.273Z,36.13
2017-11-11T08:11:47.048Z,41.27
2017-11-11T08:14:14.747Z,40.10
2017-11-11T08:16:42.412Z,41.23
2017-11-11T08:19:13.609Z,41.87
2017-11-11T08:21:41.235Z,50.33
2017-11-11T08:24:08.934Z,52.70
2017-11-11T08:26:37.562Z,57.00
2017-11-11T08:29:05.422Z,56.53
2017-11-11T08:31:33.060Z,59.50
2017-11-11T08:34:00.810Z,59.27
2017-11-11T08:36:28.480Z,58.50
2017-11-11T08:38:56.128Z,58.33
2017-11-11T08:41:24.376Z,58.80
2017-11-11T08:43:52.013Z,52.87
2017-11-11T08:49:52.424Z,62.20
2017-11-11T08:52:20.128Z,58.33
2017-11-11T08:54:47.792Z,50.03
2017-11-11T08:57:15.700Z,45.30
2017-11-11T08:59:43.398Z,44.63
2017-11-11T09:02:11.701Z,41.30
2017-11-11T09:04:39.514Z,42.30
2017-11-11T09:07:07.277Z,29.80
2017-11-11T09:09:36.363Z,26.47
2017-11-11T09:12:04.065Z,29.10
2017-11-11T09:14:31.956Z,29.73
2017-11-11T09:16:59.624Z,25.87
2017-11-11T09:19:29.226Z,27.73
2017-11-11T09:22:05.608Z,28.27
2017-11-11T09:24:33.243Z,26.40
2017-11-11T09:27:00.925Z,25.13
2017-11-11T09:29:37.978Z,25.07
2017-11-11T09:32:06.359Z,27.33
2017-11-11T09:34:34.386Z,29.83
2017-11-11T09:37:03.095Z,28.97
2017-11-11T09:39:34.020Z,28.33
2017-11-11T09:42:11.223Z,31.17
2017-11-11T09:44:41.874Z,30.07
2017-11-11T09:47:11.471Z,31.80
2017-11-11T09:49:41.412Z,31.10
2017-11-11T09:52:11.559Z,33.37
2017-11-11T09:54:40.552Z,33.97
2017-11-11T09:57:08.298Z,32.93
2017-11-11T09:59:35.971Z,32.37
2017-11-11T10:02:04.716Z,32.60
2017-11-11T10:04:32.535Z,32.40
2017-11-11T10:07:00.208Z,32.30
2017-11-11T10:09:28.844Z,31.30
2017-11-11T10:11:59.582Z,33.40
2017-11-11T10:14:29.660Z,32.30
2017-11-11T10:16:57.215Z,32.37
2017-11-11T10:19:27.621Z,29.67
2017-11-11T10:22:00.384Z,29.50
2017-11-11T10:24:34.663Z,30.30
2017-11-11T10:27:13.779Z,32.83
2017-11-11T10:29:42.552Z,29.80
2017-11-11T10:32:10.256Z,33.43
2017-11-11T10:34:38.325Z,34.77
2017-11-11T10:37:06.692Z,35.17
2017-11-11T10:39:34.289Z,35.13
2017-11-11T10:42:02.674Z,36.23
2017-11-11T10:44:30.483Z,40.43
2017-11-11T10:46:58.186Z,37.97
2017-11-11T10:49:25.817Z,34.63
2017-11-11T10:51:53.479Z,36.17
2017-11-11T10:54:21.115Z,37.60
2017-11-11T10:56:50.610Z,35.67
2017-11-11T10:59:18.217Z,35.37
2017-11-11T11:01:45.873Z,36.93
2017-11-11T11:04:13.554Z,35.60
2017-11-11T11:06:41.186Z,34.10
2017-11-11T11:09:08.911Z,32.33
2017-11-11T11:11:40.161Z,31.07
2017-11-11T11:14:08.013Z,25.53
2017-11-11T11:16:35.663Z,25.10
2017-11-11T11:19:04.073Z,22.43
2017-11-11T11:21:31.824Z,21.77
2017-11-11T11:23:59.457Z,19.70
2017-11-11T11:26:27.615Z,17.73
2017-11-11T11:28:56.497Z,19.73
2017-11-11T11:31:24.302Z,17.20
2017-11-11T11:33:51.868Z,17.47
2017-11-11T11:42:42.900Z,20.20
2017-11-11T11:45:10.560Z,19.80
2017-11-11T11:47:38.471Z,19.93
2017-11-11T11:50:09.074Z,20.67
2017-11-11T11:52:36.714Z,22.07
2017-11-11T11:55:04.391Z,25.37
2017-11-11T11:57:32.124Z,24.43
2017-11-11T12:00:01.807Z,22.70
2017-11-11T12:02:29.465Z,23.23
2017-11-11T12:04:57.048Z,24.70
2017-11-11T12:07:24.752Z,23.40
2017-11-11T12:09:52.623Z,23.83
2017-11-11T12:12:20.407Z,22.20
2017-11-11T12:14:56.616Z,21.90
2017-11-11T12:17:24.190Z,23.73
2017-11-11T12:20:34.191Z,21.73
2017-11-11T12:23:13.058Z,20.73
2017-11-11T12:25:40.915Z,23.40
2017-11-11T12:28:08.460Z,21.50
2017-11-11T12:30:58.589Z,21.00
2017-11-11T12:33:26.190Z,20.80
2017-11-11T12:35:58.812Z,21.43
2017-11-11T12:38:31.465Z,20.17
2017-11-11T12:54:38.680Z,20.60
2017-11-11T12:57:06.292Z,18.83
2017-11-11T12:59:33.911Z,18.93
2017-11-11T13:02:02.489Z,18.93
2017-11-11T13:04:30.896Z,19.43
2017-11-11T13:06:58.456Z,19.20
2017-11-11T13:09:26.612Z,20.80
2017-11-11T13:11:54.242Z,17.80
2017-11-11T13:14:21.867Z,17.97
2017-11-11T13:16:49.553Z,18.03
2017-11-11T13:19:17.755Z,19.77
2017-11-11T13:21:45.572Z,18.13
2017-11-11T13:24:13.278Z,17.90
2017-11-11T13:26:41.790Z,20.03
2017-11-11T13:29:09.367Z,20.90
2017-11-11T13:31:37.769Z,20.57
2017-11-11T13:34:06.257Z,19.63
2017-11-11T13:36:33.878Z,20.73
2017-11-11T13:39:02.259Z,18.87
2017-11-11T13:41:30.027Z,21.70
2017-11-11T13:43:57.630Z,20.40
2017-11-11T13:46:25.269Z,21.27
2017-11-11T13:48:52.888Z,22.13
2017-11-11T13:51:20.463Z,24.03
2017-11-11T13:53:48.095Z,23.07
2017-11-11T13:56:15.630Z,19.60
2017-11-11T13:58:43.165Z,20.37
2017-11-11T14:01:10.826Z,25.00
2017-11-11T14:03:38.704Z,21.80
2017-11-11T14:06:06.304Z,21.20
2017-11-11T14:08:34.101Z,24.93
2017-11-11T14:11:01.676Z,23.33
2017-11-11T14:13:29.232Z,22.27
2017-11-11T14:15:59.931Z,23.53
2017-11-11T14:18:27.549Z,23.43
2017-11-11T14:20:55.157Z,23.57
2017-11-11T14:23:22.791Z,24.07
2017-11-11T14:29:24.608Z,23.40
2017-11-11T14:31:52.251Z,25.33
2017-11-11T14:34:19.841Z,26.03
2017-11-11T14:36:48.720Z,28.23
2017-11-11T14:39:33.269Z,32.90
2017-11-11T14:44:51.710Z,31.50
2017-11-11T14:47:19.527Z,33.40
2017-11-11T14:49:47.956Z,34.33
2017-11-11T14:52:18.967Z,29.03
2017-11-11T14:54:50.301Z,29.53
2017-11-11T14:57:26.115Z,29.47
2017-11-11T15:00:11.134Z,26.10
2017-11-11T15:02:41.341Z,29.23
2017-11-11T15:05:09.104Z,27.67
2017-11-11T15:07:36.762Z,27.73
2017-11-11T15:10:06.104Z,27.80
2017-11-11T15:12:33.862Z,29.90
2017-11-11T15:15:02.292Z,18.60
2017-11-11T15:17:30.092Z,18.33
2017-11-11T15:19:57.996Z,16.80
2017-11-11T15:22:26.428Z,17.03
2017-11-11T15:24:54.154Z,17.00
2017-11-11T15:27:22.775Z,15.80
2017-11-11T15:29:50.454Z,12.93
2017-11-11T15:32:18.151Z,13.50
2017-11-11T15:34:45.841Z,14.47
2017-11-11T15:37:13.856Z,13.97
2017-11-11T15:39:41.870Z,14.90
2017-11-11T15:42:09.500Z,16.33
2017-11-11T15:44:37.151Z,14.27
2017-11-11T15:47:04.801Z,14.60
2017-11-11T15:49:33.124Z,16.20
2017-11-11T15:52:00.764Z,18.67
2017-11-11T15:54:28.484Z,20.20
2017-11-11T15:56:56.538Z,19.70
2017-11-11T15:59:24.203Z,18.40
2017-11-11T16:01:51.870Z,18.30
2017-11-11T16:04:19.681Z,20.03
2017-11-11T16:06:49.095Z,18.53
2017-11-11T16:13:02.363Z,19.87
2017-11-11T16:15:30.204Z,34.53
2017-11-11T16:18:05.298Z,30.80
2017-11-11T16:20:33.081Z,32.47
2017-11-11T16:33:00.729Z,20.37
2017-11-11T16:35:32.425Z,19.90
2017-11-11T17:21:54.817Z,55.25
2017-11-11T17:24:26.033Z,49.73
2017-11-11T17:26:53.736Z,47.23
2017-11-11T17:29:22.740Z,52.03
2017-11-11T17:34:31.393Z,43.60
2017-11-11T17:36:59.884Z,40.10
2017-11-11T17:39:27.729Z,46.40
2017-11-11T17:41:55.778Z,43.60
2017-11-11T17:44:23.611Z,41.57
2017-11-11T17:46:51.376Z,41.50
2017-11-11T17:49:19.785Z,47.23
2017-11-11T17:51:48.429Z,50.17
2017-11-11T17:54:16.154Z,69.63
2017-11-11T17:56:43.900Z,92.40
2017-11-11T17:59:13.260Z,121.70
2017-11-11T18:02:24.703Z,118.90
2017-11-11T18:15:09.769Z,96.70
2017-11-11T18:17:39.485Z,105.80
2017-11-11T18:20:26.927Z,110.23
2017-11-11T18:22:54.693Z,108.37
2017-11-11T18:37:06.928Z,102.37
2017-11-11T18:39:56.957Z,106.13
2017-11-11T18:46:01.189Z,106.83
2017-11-11T18:54:48.962Z,106.07
2017-11-11T18:57:16.788Z,106.10
2017-11-11T18:59:48.201Z,107.80
2017-11-11T19:05:24.067Z,106.20
2017-11-11T19:08:17.411Z,104.30
2017-11-11T19:10:50.083Z,108.63
2017-11-11T19:13:33.120Z,101.30
2017-11-11T19:16:34.710Z,105.97
2017-11-11T19:19:43.676Z,93.07
2017-11-11T19:22:13.153Z,58.77
2017-11-11T19:24:40.889Z,62.40
2017-11-11T19:27:09.885Z,71.73
2017-11-11T19:30:00.037Z,72.27
2017-11-11T19:32:35.231Z,68.93
2017-11-11T19:35:06.233Z,72.77
2017-11-11T19:37:34.682Z,68.33
2017-11-11T19:40:02.516Z,68.70
2017-11-11T19:42:30.243Z,66.57
2017-11-11T19:44:58.691Z,72.30
2017-11-11T19:47:26.323Z,69.60
2017-11-11T19:49:56.135Z,71.77
2017-11-11T19:52:23.755Z,71.83
2017-11-11T19:54:51.413Z,70.63
2017-11-11T19:57:19.223Z,66.40
2017-11-11T19:59:46.998Z,65.33
2017-11-11T20:02:16.965Z,63.40
2017-11-11T20:04:45.215Z,61.80
2017-11-11T20:07:12.911Z,60.93
2017-11-11T20:09:47.491Z,64.03
2017-11-11T20:12:15.184Z,60.73
2017-11-11T20:14:42.857Z,61.67
2017-11-11T20:17:10.526Z,59.40
2017-11-11T20:19:38.169Z,57.93
2017-11-11T20:22:05.921Z,63.83
2017-11-11T20:24:33.541Z,59.23
2017-11-11T20:27:01.228Z,56.20
2017-11-11T20:29:28.825Z,54.77
2017-11-11T20:31:56.437Z,50.13
2017-11-11T20:34:25.441Z,48.87
2017-11-11T20:36:53.272Z,44.23
2017-11-11T20:39:20.969Z,44.80
2017-11-11T20:41:58.175Z,42.50
2017-11-11T20:44:32.606Z,43.53
2017-11-11T20:47:03.012Z,42.60
2017-11-11T20:49:42.723Z,40.53
2017-11-11T20:52:12.622Z,39.90
2017-11-11T20:54:55.758Z,38.77
2017-11-11T20:57:24.337Z,38.53
2017-11-11T20:59:51.956Z,38.53
2017-11-11T21:02:19.579Z,35.30
2017-11-11T21:04:47.413Z,37.63
2017-11-11T21:07:15.001Z,35.87
2017-11-11T21:09:42.750Z,35.87
2017-11-11T21:12:10.871Z,34.50
2017-11-11T21:14:39.425Z,35.77
2017-11-11T21:17:08.021Z,38.80
2017-11-11T21:19:35.907Z,42.93
2017-11-11T21:22:04.880Z,42.50
2017-11-11T21:24:32.693Z,37.27
2017-11-11T21:27:00.440Z,34.80
2017-11-11T21:29:29.270Z,37.57
2017-11-11T21:31:56.965Z,37.57
2017-11-11T21:34:24.713Z,37.63
2017-11-11T21:36:52.287Z,37.57
2017-11-11T21:39:20.149Z,40.90
2017-11-11T21:41:48.595Z,37.57
2017-11-11T21:44:16.371Z,36.67
2017-11-11T21:46:44.658Z,36.30
2017-11-11T21:49:12.275Z,35.50
2017-11-11T21:51:39.900Z,36.23
2017-11-11T21:54:07.523Z,37.07
2017-11-11T21:56:35.160Z,36.33
2017-11-11T21:59:02.981Z,40.37
2017-11-11T22:01:30.652Z,40.90
2017-11-11T22:03:59.365Z,38.33
2017-11-11T22:06:27.604Z,40.00
2017-11-11T22:08:55.263Z,39.20
2017-11-11T22:11:22.929Z,37.50
2017-11-11T22:13:50.611Z,40.57
2017-11-11T22:16:18.277Z,42.47
2017-11-11T22:18:46.509Z,42.20
2017-11-11T22:21:14.082Z,41.40
2017-11-11T22:23:41.773Z,43.10
2017-11-11T22:26:10.429Z,46.47
2017-11-11T22:28:38.273Z,44.33
2017-11-11T22:31:06.832Z,46.70
2017-11-11T22:33:35.450Z,45.53
2017-11-11T22:36:03.077Z,46.10
2017-11-11T22:38:31.720Z,46.80
2017-11-11T22:40:59.297Z,50.50
2017-11-11T22:43:27.807Z,48.40
2017-11-11T22:45:56.205Z,50.43
2017-11-11T22:48:24.138Z,51.30
2017-11-11T22:50:52.316Z,50.90
2017-11-11T22:53:20.066Z,47.67
2017-11-11T22:55:47.997Z,47.30
2017-11-11T22:58:18.432Z,47.70
2017-11-11T23:00:46.128Z,47.30
2017-11-11T23:03:13.783Z,46.50
2017-11-11T23:05:41.436Z,44.30
2017-11-11T23:08:09.138Z,49.00
2017-11-11T23:10:38.540Z,45.20
2017-11-11T23:13:06.130Z,46.97
2017-11-11T23:15:34.242Z,45.63
2017-11-11T23:18:01.879Z,45.93
2017-11-11T23:20:29.537Z,45.93
2017-11-11T23:22:57.585Z,46.40
2017-11-11T23:25:25.560Z,46.70
2017-11-11T23:27:54.175Z,49.33
2017-11-11T23:30:22.019Z,50.70
2017-11-11T23:32:49.870Z,47.97
2017-11-11T23:35:17.563Z,56.00
2017-11-11T23:37:45.710Z,45.87
2017-11-11T23:40:13.627Z,42.73
2017-11-11T23:42:41.346Z,41.30
2017-11-11T23:45:09.984Z,41.30
2017-11-11T23:47:37.593Z,36.60
2017-11-11T23:50:06.078Z,38.40
2017-11-11T23:52:33.720Z,36.10
2017-11-11T23:55:01.410Z,31.90
2017-11-11T23:57:29.064Z,34.07
2017-11-11T23:59:56.853Z,31.93
